createdAt,value
2022-12-11T00:00:33.685Z,20.13
2022-12-11T00:04:45.456Z,20.80
2022-12-11T00:08:57.085Z,22.13
2022-12-11T00:13:08.647Z,21.57
2022-12-11T00:17:20.263Z,21.30
2022-12-11T00:21:32.287Z,20.47
2022-12-11T00:25:45.780Z,20.20
2022-12-11T00:29:57.472Z,19.77
2022-12-11T00:34:12.097Z,19.43
2022-12-11T00:38:24.152Z,18.97
2022-12-11T00:42:35.750Z,20.70
2022-12-11T00:46:47.397Z,19.10
2022-12-11T00:51:00.221Z,19.67
2022-12-11T00:55:12.097Z,20.17
2022-12-11T00:59:23.895Z,19.43
2022-12-11T01:03:37.410Z,20.07
2022-12-11T01:07:49.178Z,19.47
2022-12-11T01:12:00.766Z,19.23
2022-12-11T01:16:15.883Z,19.10
2022-12-11T01:20:28.177Z,18.63
2022-12-11T01:24:39.694Z,19.70
2022-12-11T01:28:52.159Z,19.37
2022-12-11T01:33:04.296Z,18.47
2022-12-11T01:37:15.955Z,19.47
2022-12-11T01:41:27.584Z,19.27
2022-12-11T01:45:42.260Z,19.03
2022-12-11T01:49:53.951Z,21.23
2022-12-11T01:54:08.976Z,19.80
2022-12-11T01:58:25.417Z,18.70
2022-12-11T02:02:37.120Z,20.13
2022-12-11T02:06:50.916Z,19.63
2022-12-11T02:11:20.215Z,19.53
2022-12-11T02:15:56.729Z,20.10
2022-12-11T02:20:17.599Z,19.17
2022-12-11T02:24:57.272Z,21.77
2022-12-11T02:29:15.526Z,21.07
2022-12-11T02:33:42.278Z,21.20
2022-12-11T02:38:03.338Z,21.07
2022-12-11T02:42:16.393Z,21.97
2022-12-11T02:46:29.575Z,19.67
2022-12-11T02:50:46.746Z,21.53
2022-12-11T02:55:01.022Z,21.20
2022-12-11T02:59:21.527Z,21.10
2022-12-11T03:03:33.284Z,21.50
2022-12-11T03:07:45.468Z,21.93
2022-12-11T03:11:57.091Z,21.13
2022-12-11T03:16:31.597Z,20.60
2022-12-11T03:20:45.929Z,22.13
2022-12-11T03:25:06.437Z,20.70
2022-12-11T03:29:23.211Z,21.63
2022-12-11T03:33:39.271Z,22.33
2022-12-11T03:37:53.302Z,21.83
2022-12-11T03:42:09.326Z,20.53
2022-12-11T03:46:24.830Z,21.57
2022-12-11T03:50:37.483Z,22.40
2022-12-11T03:54:50.838Z,22.30
2022-12-11T03:59:02.541Z,22.00
2022-12-11T04:03:14.840Z,22.83
2022-12-11T04:07:26.920Z,23.63
2022-12-11T04:11:39.610Z,22.07
2022-12-11T04:15:51.355Z,22.03
2022-12-11T04:20:23.039Z,22.97
2022-12-11T04:24:34.755Z,22.40
2022-12-11T04:28:47.715Z,21.93
2022-12-11T04:32:59.313Z,22.97
2022-12-11T04:37:11.005Z,21.47
2022-12-11T04:41:22.590Z,21.17
2022-12-11T04:45:34.217Z,21.33
2022-12-11T04:49:46.060Z,22.37
2022-12-11T04:53:59.039Z,21.33
2022-12-11T04:58:10.621Z,22.10
2022-12-11T05:02:22.235Z,21.83
2022-12-11T05:06:33.904Z,20.80
2022-12-11T05:10:50.110Z,20.77
2022-12-11T05:15:01.837Z,23.13
2022-12-11T05:19:13.438Z,21.43
2022-12-11T05:23:25.200Z,21.43
2022-12-11T05:27:37.324Z,21.57
2022-12-11T05:31:48.898Z,21.10
2022-12-11T05:36:00.933Z,21.70
2022-12-11T05:40:12.828Z,21.27
2022-12-11T05:44:24.668Z,21.57
2022-12-11T05:48:37.644Z,22.17
2022-12-11T05:52:49.271Z,20.37
2022-12-11T05:57:00.838Z,22.00
2022-12-11T06:01:27.914Z,21.53
2022-12-11T06:05:41.927Z,21.10
2022-12-11T06:09:53.448Z,21.57
2022-12-11T06:14:05.188Z,23.07
2022-12-11T06:18:17.039Z,29.90
2022-12-11T06:22:28.629Z,21.10
2022-12-11T06:26:40.356Z,21.23
2022-12-11T06:30:52.329Z,20.57
2022-12-11T06:35:04.220Z,25.90
2022-12-11T06:39:15.787Z,25.93
2022-12-11T06:43:27.372Z,23.07
2022-12-11T06:47:38.976Z,19.63
2022-12-11T06:51:50.497Z,17.80
2022-12-11T06:56:14.069Z,18.23
2022-12-11T07:00:25.681Z,17.63
2022-12-11T07:04:37.292Z,17.03
2022-12-11T07:08:49.030Z,17.97
2022-12-11T07:13:00.511Z,16.57
2022-12-11T07:17:12.064Z,15.47
2022-12-11T07:21:23.630Z,23.60
2022-12-11T07:25:37.086Z,23.10
2022-12-11T07:29:50.221Z,23.60
2022-12-11T07:34:05.877Z,22.60
2022-12-11T07:38:17.335Z,18.87
2022-12-11T07:42:28.904Z,15.20
2022-12-11T07:46:40.532Z,14.80
2022-12-11T07:50:52.026Z,15.10
2022-12-11T07:55:04.284Z,13.33
2022-12-11T07:59:16.683Z,15.30
2022-12-11T08:03:28.237Z,14.17
2022-12-11T08:07:40.032Z,14.60
2022-12-11T08:11:52.073Z,14.57
2022-12-11T08:16:05.454Z,13.23
2022-12-11T08:20:16.955Z,12.90
2022-12-11T08:24:28.499Z,12.33
2022-12-11T08:28:40.301Z,11.67
2022-12-11T08:32:52.002Z,11.57
2022-12-11T08:37:03.552Z,10.73
2022-12-11T08:41:21.829Z,10.10
2022-12-11T08:45:34.078Z,10.87
2022-12-11T08:49:45.620Z,10.23
2022-12-11T08:53:59.492Z,10.40
2022-12-11T08:58:11.129Z,10.97
2022-12-11T09:02:22.759Z,10.90
2022-12-11T09:06:34.645Z,10.80
2022-12-11T09:10:46.226Z,10.80
2022-12-11T09:14:57.771Z,10.10
2022-12-11T09:19:14.063Z,10.40
2022-12-11T09:23:25.709Z,11.80
2022-12-11T09:27:37.316Z,11.17
2022-12-11T09:31:49.624Z,11.43
2022-12-11T09:36:02.708Z,10.60
2022-12-11T09:40:14.473Z,10.50
2022-12-11T09:44:54.891Z,12.23
2022-12-11T09:49:19.368Z,13.33
2022-12-11T09:53:35.856Z,13.70
2022-12-11T09:57:56.768Z,11.63
2022-12-11T10:02:22.592Z,10.73
2022-12-11T10:06:41.755Z,10.30
2022-12-11T10:11:34.637Z,10.37
2022-12-11T10:16:01.593Z,11.00
2022-12-11T10:20:28.566Z,11.70
2022-12-11T10:29:22.289Z,10.90
2022-12-11T10:34:02.268Z,11.07
2022-12-11T10:38:35.119Z,11.33
2022-12-11T10:42:54.601Z,11.63
2022-12-11T10:47:11.604Z,11.37
2022-12-11T10:51:33.284Z,12.40
2022-12-11T10:55:47.047Z,11.17
2022-12-11T10:59:59.961Z,10.00
2022-12-11T11:04:29.452Z,10.67
2022-12-11T11:08:50.606Z,12.40
2022-12-11T11:13:03.034Z,10.00
2022-12-11T11:17:17.405Z,11.43
2022-12-11T11:21:30.173Z,11.63
2022-12-11T11:25:59.485Z,11.30
2022-12-11T11:30:19.042Z,11.40
2022-12-11T11:34:30.974Z,13.67
2022-12-11T11:38:50.505Z,12.00
2022-12-11T11:43:38.299Z,12.43
2022-12-11T11:48:11.599Z,12.73
2022-12-11T11:52:34.472Z,12.13
2022-12-11T11:56:46.694Z,12.63
2022-12-11T12:00:58.202Z,12.73
2022-12-11T12:05:13.764Z,13.23
2022-12-11T12:09:54.258Z,13.53
2022-12-11T12:14:51.769Z,14.10
2022-12-11T12:19:42.337Z,13.00
2022-12-11T12:24:09.051Z,13.07
2022-12-11T12:28:53.679Z,14.70
2022-12-11T12:33:27.452Z,13.13
2022-12-11T12:37:57.835Z,12.60
2022-12-11T12:42:28.420Z,12.20
2022-12-11T12:46:53.472Z,12.33
2022-12-11T12:51:06.140Z,13.47
2022-12-11T12:55:22.990Z,14.03
2022-12-11T12:59:34.550Z,12.97
2022-12-11T13:04:05.621Z,12.33
2022-12-11T13:08:25.570Z,12.03
2022-12-11T13:12:42.497Z,10.93
2022-12-11T13:17:26.198Z,11.70
2022-12-11T13:21:41.152Z,12.20
2022-12-11T13:26:00.875Z,11.73
2022-12-11T13:30:15.227Z,12.07
2022-12-11T13:34:31.702Z,12.03
2022-12-11T13:38:50.754Z,12.03
2022-12-11T13:43:05.922Z,12.33
2022-12-11T13:47:19.729Z,12.33
2022-12-11T13:51:34.986Z,12.33
2022-12-11T13:55:47.501Z,12.03
2022-12-11T13:59:59.588Z,12.13
2022-12-11T14:04:17.482Z,12.60
2022-12-11T14:08:35.607Z,12.30
2022-12-11T14:13:10.897Z,12.90
2022-12-11T14:17:26.183Z,12.67
2022-12-11T14:21:38.416Z,12.60
2022-12-11T14:26:15.666Z,11.90
2022-12-11T14:30:30.290Z,12.20
2022-12-11T14:34:45.296Z,11.20
2022-12-11T14:39:02.822Z,12.63
2022-12-11T14:43:37.501Z,11.87
2022-12-11T14:47:50.263Z,11.83
2022-12-11T14:52:03.389Z,11.93
2022-12-11T14:56:19.908Z,11.10
2022-12-11T15:00:35.923Z,13.60
2022-12-11T15:05:03.295Z,13.13
2022-12-11T15:09:21.058Z,11.47
2022-12-11T15:13:35.120Z,14.10
2022-12-11T15:17:52.709Z,13.60
2022-12-11T15:22:08.386Z,13.07
2022-12-11T15:26:21.464Z,12.20
2022-12-11T15:30:35.015Z,10.50
2022-12-11T15:34:52.480Z,11.93
2022-12-11T15:39:09.380Z,14.83
2022-12-11T15:43:21.042Z,11.30
2022-12-11T15:47:33.128Z,12.07
2022-12-11T15:51:44.640Z,12.17
2022-12-11T15:55:57.902Z,11.23
2022-12-11T16:00:14.298Z,11.87
2022-12-11T16:04:25.795Z,10.63
2022-12-11T16:08:37.487Z,13.82
2022-12-11T16:12:49.022Z,12.57
2022-12-11T16:17:00.647Z,11.17
2022-12-11T16:21:15.644Z,11.57
2022-12-11T16:25:32.686Z,11.80
2022-12-11T16:29:44.330Z,12.03
2022-12-11T16:33:55.929Z,11.57
2022-12-11T16:38:07.750Z,12.57
2022-12-11T16:42:19.318Z,13.60
2022-12-11T16:46:31.835Z,13.53
2022-12-11T16:50:43.345Z,12.60
2022-12-11T16:54:56.907Z,12.87
2022-12-11T16:59:09.136Z,12.37
2022-12-11T17:03:20.657Z,14.37
2022-12-11T17:07:33.177Z,13.63
2022-12-11T17:11:44.836Z,13.70
2022-12-11T17:15:56.419Z,15.33
2022-12-11T17:20:09.065Z,15.70
2022-12-11T17:24:20.564Z,13.73
2022-12-11T17:28:32.377Z,12.57
2022-12-11T17:32:47.810Z,17.43
2022-12-11T17:36:59.401Z,16.57
2022-12-11T17:41:18.502Z,19.80
2022-12-11T17:45:32.102Z,13.53
2022-12-11T17:49:43.767Z,15.47
2022-12-11T17:53:56.048Z,17.23
2022-12-11T17:58:07.572Z,16.67
2022-12-11T18:02:19.213Z,17.20
2022-12-11T18:06:31.412Z,19.27
2022-12-11T18:10:43.575Z,18.20
2022-12-11T18:14:58.743Z,12.90
2022-12-11T18:19:10.619Z,12.90
2022-12-11T18:23:22.229Z,15.53
2022-12-11T18:27:33.755Z,14.17
2022-12-11T18:31:45.268Z,12.83
2022-12-11T18:35:56.883Z,10.47
2022-12-11T18:40:09.844Z,11.10
2022-12-11T18:44:22.675Z,12.60
2022-12-11T18:48:34.474Z,13.43
2022-12-11T18:52:45.970Z,12.63
2022-12-11T18:56:57.592Z,13.07
2022-12-11T19:01:17.257Z,12.07
2022-12-11T19:05:29.279Z,13.30
2022-12-11T19:09:46.224Z,14.40
2022-12-11T19:13:59.623Z,15.50
2022-12-11T19:18:11.266Z,12.63
2022-12-11T19:22:22.841Z,11.90
2022-12-11T19:26:35.691Z,11.73
2022-12-11T19:30:48.972Z,15.27
2022-12-11T19:35:00.546Z,14.80
2022-12-11T19:39:14.275Z,11.97
2022-12-11T19:43:25.846Z,13.93
2022-12-11T19:47:37.468Z,12.30
2022-12-11T19:51:49.249Z,11.53
2022-12-11T19:56:01.016Z,12.37
2022-12-11T20:00:13.001Z,13.33
2022-12-11T20:04:24.530Z,12.57
2022-12-11T20:08:44.982Z,13.50
2022-12-11T20:12:58.386Z,12.60
2022-12-11T20:17:12.801Z,13.30
2022-12-11T20:21:27.236Z,13.23
2022-12-11T20:25:40.345Z,11.20
2022-12-11T20:29:52.004Z,14.17
2022-12-11T20:34:04.644Z,13.23
2022-12-11T20:38:16.239Z,11.67
2022-12-11T20:42:27.826Z,12.37
2022-12-11T20:46:39.378Z,12.37
2022-12-11T20:50:50.935Z,13.53
2022-12-11T20:55:02.607Z,13.27
2022-12-11T20:59:14.313Z,12.60
2022-12-11T21:03:25.936Z,12.33
2022-12-11T21:07:37.540Z,12.20
2022-12-11T21:11:49.602Z,12.23
2022-12-11T21:16:05.396Z,12.53
2022-12-11T21:20:17.075Z,12.33
2022-12-11T21:24:29.721Z,12.27
2022-12-11T21:28:41.487Z,12.17
2022-12-11T21:32:53.275Z,12.93
2022-12-11T21:37:04.940Z,12.53
2022-12-11T21:41:22.294Z,13.30
2022-12-11T21:46:00.452Z,12.03
2022-12-11T21:50:08.480Z,13.23
2022-12-11T21:54:20.212Z,13.63
2022-12-11T21:58:31.874Z,15.20
2022-12-11T22:02:43.591Z,12.77
2022-12-11T22:06:55.265Z,12.77
2022-12-11T22:11:07.745Z,16.73
2022-12-11T22:15:19.607Z,13.13
2022-12-11T22:19:32.800Z,12.30
2022-12-11T22:23:44.903Z,11.40
2022-12-11T22:27:56.519Z,11.37
2022-12-11T22:32:08.144Z,12.03
2022-12-11T22:36:20.335Z,11.60
2022-12-11T22:40:32.181Z,11.10
2022-12-11T22:44:43.820Z,11.13
2022-12-11T22:48:55.870Z,11.57
2022-12-11T22:53:07.576Z,10.30
2022-12-11T22:57:19.138Z,11.40
2022-12-11T23:01:30.812Z,11.17
2022-12-11T23:05:43.301Z,10.77
2022-12-11T23:09:54.910Z,11.87
2022-12-11T23:14:08.831Z,11.67
2022-12-11T23:18:20.722Z,11.60
2022-12-11T23:22:33.280Z,11.50
2022-12-11T23:26:44.950Z,11.17
2022-12-11T23:30:56.630Z,10.70
2022-12-11T23:35:08.621Z,11.40
2022-12-11T23:39:20.210Z,11.47
2022-12-11T23:43:33.561Z,10.30
2022-12-11T23:47:45.177Z,11.23
2022-12-11T23:51:56.791Z,11.20
2022-12-11T23:56:12.656Z,11.00
